Horsford, United Kingdom
Current Conditions -  °F | °C
As of 7:20 PM on Thursday 23 Oct 2014 (Local Time) from EGSH Reporting Station
Broken Clouds Broken Clouds  
Wind Chill: 59°   Ceiling: 2000
Heat Index: 59°   Visibility: 6mi
Dew Point: 54°   Wind: 8mph
Humidity: 82%   Direction: 190°S
Pressure: 30"   Gusts: NA
Location:  52.7°N, 1.24°E
Report Text: EGSH 231820Z 19007KT 140V230 9999 BKN020 15/12 Q1016 NOSIG
Loading
Personal Weather Stations






























Interactive Weather Map
Tropical Storm Tracking
New forecast layout! Learn more

10-Day Weather Forecast

Advertisements
Track Severe Weather on mobile